Toulouse-Blagnac Airport

Airport
ICAO code: 
LFBO
IATA Code: 
TLS
Summary
ICAO Region: 
EUR
Territory: 
Location: 
Blagnac, Midi-Pyrenees
Serving: 
Toulouse
Elevation: 
497 ft
Coordinates: 
Aerial View: 
43° 37' 34.903" N, 1° 21' 51.919" E
Metar
Observation
LFBO 161030Z AUTO VRB02KT CAVOK 04/M01 Q1032 NOSIG
Station
Toulouse / Blagnac
Date/Time
2022-01-16 10:30:00
Wind speed
02 kts
Lowest cloud amount
clouds and visibility OK
Temperature
4°C
Dew point
-1°C
Humidity
69%
QNH
1032 hPa
Weather condition
n/a

Description

International airport serving city of Toulouse, France.

Climatology

Temperate Marine climate/Oceanic climate (Köppen climate classification Cfb). Moderately cool summer and comparatively warm winter with a temperature range of only 14°C. Prevailing south-westerly winds from the Atlantic Ocean.

Runways

Designator Length Width Surface Rops
14L/32R 3000 45 ASP Yes/Yes
14R/32L 3500 45 ASP Yes/Yes
Airport map: 
Aerial View: 

Accidents and Serious Incidents at or in the vicinity of LFBO

SKYbrary Partners:

Safety knowledge contributed by: